sensor_id;sensor_type;location;lat;lon;timestamp;pressure;altitude;pressure_sealevel;temperature;humidity
8627;BME280;4351;51.422;6.794;2023-06-14T00:02:10;101255.03;;;19.67;100.00
8627;BME280;4351;51.422;6.794;2023-06-14T00:04:38;101248.25;;;19.61;100.00
8627;BME280;4351;51.422;6.794;2023-06-14T00:07:08;101256.47;;;19.61;100.00
8627;BME280;4351;51.422;6.794;2023-06-14T00:09:39;101255.31;;;19.63;100.00
8627;BME280;4351;51.422;6.794;2023-06-14T00:12:08;101260.03;;;19.61;100.00
8627;BME280;4351;51.422;6.794;2023-06-14T00:14:36;101264.06;;;19.57;100.00
8627;BME280;4351;51.422;6.794;2023-06-14T00:17:04;101259.31;;;19.49;100.00
8627;BME280;4351;51.422;6.794;2023-06-14T00:19:35;101252.69;;;19.52;100.00
8627;BME280;4351;51.422;6.794;2023-06-14T00:22:03;101257.88;;;19.55;100.00
8627;BME280;4351;51.422;6.794;2023-06-14T00:24:31;101262.91;;;19.50;100.00
8627;BME280;4351;51.422;6.794;2023-06-14T00:26:59;101265.09;;;19.56;100.00
8627;BME280;4351;51.422;6.794;2023-06-14T00:29:28;101265.66;;;19.50;100.00
8627;BME280;4351;51.422;6.794;2023-06-14T00:31:56;101275.56;;;19.51;100.00
8627;BME280;4351;51.422;6.794;2023-06-14T00:34:26;101279.03;;;19.43;100.00
8627;BME280;4351;51.422;6.794;2023-06-14T00:36:55;101280.31;;;19.49;100.00
8627;BME280;4351;51.422;6.794;2023-06-14T00:39:23;101274.28;;;19.55;100.00
8627;BME280;4351;51.422;6.794;2023-06-14T00:41:50;101280.06;;;19.52;100.00
8627;BME280;4351;51.422;6.794;2023-06-14T00:44:19;101270.88;;;19.63;100.00
8627;BME280;4351;51.422;6.794;2023-06-14T00:46:48;101271.56;;;19.55;100.00
8627;BME280;4351;51.422;6.794;2023-06-14T00:49:17;101284.66;;;19.51;100.00
8627;BME280;4351;51.422;6.794;2023-06-14T00:51:45;101275.47;;;19.62;100.00
8627;BME280;4351;51.422;6.794;2023-06-14T00:54:14;101284.19;;;19.46;100.00
8627;BME280;4351;51.422;6.794;2023-06-14T00:56:43;101284.66;;;19.51;100.00
8627;BME280;4351;51.422;6.794;2023-06-14T00:59:11;101293.44;;;19.45;100.00
8627;BME280;4351;51.422;6.794;2023-06-14T01:01:39;101292.09;;;19.39;100.00
8627;BME280;4351;51.422;6.794;2023-06-14T01:04:08;101294.56;;;19.42;100.00
8627;BME280;4351;51.422;6.794;2023-06-14T01:06:45;101295.13;;;19.36;100.00
8627;BME280;4351;51.422;6.794;2023-06-14T01:09:25;101305.19;;;19.36;100.00
8627;BME280;4351;51.422;6.794;2023-06-14T01:12:04;101306.22;;;19.35;100.00
8627;BME280;4351;51.422;6.794;2023-06-14T01:14:35;101303.59;;;19.33;100.00
8627;BME280;4351;51.422;6.794;2023-06-14T01:17:05;101309.19;;;19.32;100.00
8627;BME280;4351;51.422;6.794;2023-06-14T01:19:34;101296.56;;;19.30;100.00
8627;BME280;4351;51.422;6.794;2023-06-14T01:22:02;101296.66;;;19.29;100.00
8627;BME280;4351;51.422;6.794;2023-06-14T01:24:32;101300.59;;;19.36;100.00
8627;BME280;4351;51.422;6.794;2023-06-14T01:27:02;101290.94;;;19.32;100.00
8627;BME280;4351;51.422;6.794;2023-06-14T01:29:30;101293.75;;;19.21;100.00
8627;BME280;4351;51.422;6.794;2023-06-14T01:32:00;101292.31;;;19.26;100.00
8627;BME280;4351;51.422;6.794;2023-06-14T01:34:30;101294.28;;;19.14;100.00
8627;BME280;4351;51.422;6.794;2023-06-14T01:37:00;101286.28;;;19.23;100.00
8627;BME280;4351;51.422;6.794;2023-06-14T01:39:31;101292.69;;;19.12;100.00
8627;BME280;4351;51.422;6.794;2023-06-14T01:42:00;101294.28;;;19.14;100.00
8627;BME280;4351;51.422;6.794;2023-06-14T01:44:28;101292.81;;;19.10;100.00
8627;BME280;4351;51.422;6.794;2023-06-14T01:47:00;101293.28;;;19.15;100.00
8627;BME280;4351;51.422;6.794;2023-06-14T01:49:28;101295.91;;;19.17;100.00
8627;BME280;4351;51.422;6.794;2023-06-14T01:51:56;101302.41;;;19.04;100.00
8627;BME280;4351;51.422;6.794;2023-06-14T01:54:24;101291.19;;;18.98;100.00
8627;BME280;4351;51.422;6.794;2023-06-14T01:56:53;101289.03;;;19.01;100.00
8627;BME280;4351;51.422;6.794;2023-06-14T01:59:21;101297.38;;;19.00;100.00
8627;BME280;4351;51.422;6.794;2023-06-14T02:01:49;101286.22;;;18.91;100.00
8627;BME280;4351;51.422;6.794;2023-06-14T02:04:18;101290.78;;;18.81;100.00
8627;BME280;4351;51.422;6.794;2023-06-14T02:06:46;101298.72;;;18.84;100.00
8627;BME280;4351;51.422;6.794;2023-06-14T02:09:14;101303.31;;;18.83;100.00
8627;BME280;4351;51.422;6.794;2023-06-14T02:11:42;101298.97;;;18.81;100.00
8627;BME280;4351;51.422;6.794;2023-06-14T02:14:11;101297.03;;;18.71;100.00
8627;BME280;4351;51.422;6.794;2023-06-14T02:16:41;101295.38;;;18.59;100.00
8627;BME280;4351;51.422;6.794;2023-06-14T02:19:15;101296.31;;;18.69;100.00
8627;BME280;4351;51.422;6.794;2023-06-14T02:21:43;101306.19;;;18.82;100.00
8627;BME280;4351;51.422;6.794;2023-06-14T02:24:12;101311.47;;;18.73;100.00
8627;BME280;4351;51.422;6.794;2023-06-14T02:26:41;101304.66;;;18.68;100.00
8627;BME280;4351;51.422;6.794;2023-06-14T02:29:15;101309.31;;;18.56;100.00
8627;BME280;4351;51.422;6.794;2023-06-14T02:31:43;101305.53;;;18.68;100.00
8627;BME280;4351;51.422;6.794;2023-06-14T02:34:11;101308.25;;;18.68;100.00
8627;BME280;4351;51.422;6.794;2023-06-14T02:36:39;101301.97;;;18.56;100.00
8627;BME280;4351;51.422;6.794;2023-06-14T02:39:08;101312.06;;;18.56;100.00
8627;BME280;4351;51.422;6.794;2023-06-14T02:41:37;101312.56;;;18.49;100.00
8627;BME280;4351;51.422;6.794;2023-06-14T02:44:05;101312.16;;;18.54;100.00
8627;BME280;4351;51.422;6.794;2023-06-14T02:46:34;101317.19;;;18.49;100.00
8627;BME280;4351;51.422;6.794;2023-06-14T02:49:03;101321.28;;;18.43;100.00
8627;BME280;4351;51.422;6.794;2023-06-14T02:51:30;101323.28;;;18.41;100.00
8627;BME280;4351;51.422;6.794;2023-06-14T02:53:58;101323.06;;;18.33;100.00
8627;BME280;4351;51.422;6.794;2023-06-14T02:56:27;101329.78;;;18.29;100.00
8627;BME280;4351;51.422;6.794;2023-06-14T02:58:56;101328.91;;;18.28;100.00
8627;BME280;4351;51.422;6.794;2023-06-14T03:01:25;101334.00;;;18.33;100.00
8627;BME280;4351;51.422;6.794;2023-06-14T03:04:06;101336.22;;;18.27;100.00
8627;BME280;4351;51.422;6.794;2023-06-14T03:06:37;101339.47;;;18.33;100.00
8627;BME280;4351;51.422;6.794;2023-06-14T03:09:07;101336.72;;;18.33;100.00
8627;BME280;4351;51.422;6.794;2023-06-14T03:11:38;101335.78;;;18.22;100.00
8627;BME280;4351;51.422;6.794;2023-06-14T03:14:06;101344.31;;;18.29;100.00
8627;BME280;4351;51.422;6.794;2023-06-14T03:16:36;101340.72;;;18.17;100.00
8627;BME280;4351;51.422;6.794;2023-06-14T03:19:04;101348.91;;;18.29;100.00
8627;BME280;4351;51.422;6.794;2023-06-14T03:21:34;101345.97;;;18.20;100.00
8627;BME280;4351;51.422;6.794;2023-06-14T03:24:03;101351.03;;;18.25;100.00
8627;BME280;4351;51.422;6.794;2023-06-14T03:26:33;101351.16;;;18.23;100.00
8627;BME280;4351;51.422;6.794;2023-06-14T03:29:03;101353.91;;;18.12;100.00
8627;BME280;4351;51.422;6.794;2023-06-14T03:31:32;101355.28;;;18.18;100.00
8627;BME280;4351;51.422;6.794;2023-06-14T03:34:02;101356.88;;;18.09;100.00
8627;BME280;4351;51.422;6.794;2023-06-14T03:36:30;101355.00;;;18.09;100.00
8627;BME280;4351;51.422;6.794;2023-06-14T03:39:01;101357.00;;;18.07;100.00
8627;BME280;4351;51.422;6.794;2023-06-14T03:41:29;101364.09;;;17.98;100.00
8627;BME280;4351;51.422;6.794;2023-06-14T03:43:57;101363.59;;;17.93;100.00
8627;BME280;4351;51.422;6.794;2023-06-14T03:46:25;101374.78;;;17.90;100.00
8627;BME280;4351;51.422;6.794;2023-06-14T03:48:53;101377.84;;;18.08;100.00
8627;BME280;4351;51.422;6.794;2023-06-14T03:51:22;101382.34;;;17.86;100.00
8627;BME280;4351;51.422;6.794;2023-06-14T03:53:52;101381.59;;;17.96;100.00
8627;BME280;4351;51.422;6.794;2023-06-14T03:56:26;101380.09;;;17.91;100.00
8627;BME280;4351;51.422;6.794;2023-06-14T03:58:54;101374.13;;;17.98;100.00
8627;BME280;4351;51.422;6.794;2023-06-14T04:01:25;101380.63;;;17.97;100.00
8627;BME280;4351;51.422;6.794;2023-06-14T04:03:58;101387.78;;;17.86;100.00
8627;BME280;4351;51.422;6.794;2023-06-14T04:06:28;101388.44;;;17.90;100.00
8627;BME280;4351;51.422;6.794;2023-06-14T04:08:59;101387.66;;;17.99;100.00
8627;BME280;4351;51.422;6.794;2023-06-14T04:11:31;101392.25;;;17.99;100.00
8627;BME280;4351;51.422;6.794;2023-06-14T04:13:59;101391.91;;;17.92;100.00
8627;BME280;4351;51.422;6.794;2023-06-14T04:16:28;101402.69;;;17.93;100.00
8627;BME280;4351;51.422;6.794;2023-06-14T04:18:58;101401.56;;;17.85;100.00
8627;BME280;4351;51.422;6.794;2023-06-14T04:21:26;101400.69;;;17.96;100.00
8627;BME280;4351;51.422;6.794;2023-06-14T04:23:58;101405.78;;;18.00;100.00
8627;BME280;4351;51.422;6.794;2023-06-14T04:26:29;101407.63;;;18.00;100.00
8627;BME280;4351;51.422;6.794;2023-06-14T04:29:01;101409.00;;;17.94;100.00
8627;BME280;4351;51.422;6.794;2023-06-14T04:31:33;101412.22;;;17.99;100.00
8627;BME280;4351;51.422;6.794;2023-06-14T04:34:07;101417.81;;;17.98;100.00
8627;BME280;4351;51.422;6.794;2023-06-14T04:36:36;101414.94;;;17.99;100.00
8627;BME280;4351;51.422;6.794;2023-06-14T04:39:05;101412.72;;;18.04;100.00
8627;BME280;4351;51.422;6.794;2023-06-14T04:41:33;101414.94;;;17.99;100.00
8627;BME280;4351;51.422;6.794;2023-06-14T04:44:03;101420.91;;;18.04;100.00
8627;BME280;4351;51.422;6.794;2023-06-14T04:46:36;101416.94;;;18.09;100.00
8627;BME280;4351;51.422;6.794;2023-06-14T04:49:13;101424.16;;;17.98;100.00
8627;BME280;4351;51.422;6.794;2023-06-14T04:51:43;101422.88;;;18.14;100.00
8627;BME280;4351;51.422;6.794;2023-06-14T04:54:11;101425.88;;;18.22;100.00
8627;BME280;4351;51.422;6.794;2023-06-14T04:56:41;101424.84;;;18.35;100.00
8627;BME280;4351;51.422;6.794;2023-06-14T04:59:12;101429.94;;;18.28;100.00
8627;BME280;4351;51.422;6.794;2023-06-14T05:01:41;101433.56;;;18.29;100.00
8627;BME280;4351;51.422;6.794;2023-06-14T05:04:15;101429.78;;;18.41;100.00
8627;BME280;4351;51.422;6.794;2023-06-14T05:06:44;101438.53;;;18.23;100.00
8627;BME280;4351;51.422;6.794;2023-06-14T05:09:14;101433.94;;;18.24;100.00
8627;BME280;4351;51.422;6.794;2023-06-14T05:11:44;101440.78;;;18.30;100.00
8627;BME280;4351;51.422;6.794;2023-06-14T05:14:13;101435.78;;;18.35;100.00
8627;BME280;4351;51.422;6.794;2023-06-14T05:16:41;101449.28;;;18.36;100.00
8627;BME280;4351;51.422;6.794;2023-06-14T05:19:10;101443.56;;;18.51;100.00
8627;BME280;4351;51.422;6.794;2023-06-14T05:21:38;101445.94;;;18.44;100.00
8627;BME280;4351;51.422;6.794;2023-06-14T05:24:09;101458.94;;;18.52;100.00
8627;BME280;4351;51.422;6.794;2023-06-14T05:26:37;101452.34;;;18.55;100.00
8627;BME280;4351;51.422;6.794;2023-06-14T05:29:05;101449.13;;;18.49;100.00
8627;BME280;4351;51.422;6.794;2023-06-14T05:31:35;101454.47;;;18.63;100.00
8627;BME280;4351;51.422;6.794;2023-06-14T05:34:03;101450.31;;;18.80;100.00
8627;BME280;4351;51.422;6.794;2023-06-14T05:36:31;101443.84;;;18.69;100.00
8627;BME280;4351;51.422;6.794;2023-06-14T05:38:59;101451.81;;;18.72;100.00
8627;BME280;4351;51.422;6.794;2023-06-14T05:41:29;101443.50;;;18.95;100.00
8627;BME280;4351;51.422;6.794;2023-06-14T05:43:57;101446.03;;;18.87;100.00
8627;BME280;4351;51.422;6.794;2023-06-14T05:46:26;101459.69;;;18.87;100.00
8627;BME280;4351;51.422;6.794;2023-06-14T05:48:56;101454.66;;;19.04;100.00
8627;BME280;4351;51.422;6.794;2023-06-14T05:51:24;101461.84;;;19.16;100.00
8627;BME280;4351;51.422;6.794;2023-06-14T05:53:53;101471.03;;;19.15;100.00
8627;BME280;4351;51.422;6.794;2023-06-14T05:56:21;101467.81;;;19.10;100.00
8627;BME280;4351;51.422;6.794;2023-06-14T05:58:49;101460.16;;;19.25;100.00
8627;BME280;4351;51.422;6.794;2023-06-14T06:01:17;101461.16;;;19.46;100.00
8627;BME280;4351;51.422;6.794;2023-06-14T06:03:45;101457.00;;;19.51;100.00
8627;BME280;4351;51.422;6.794;2023-06-14T06:06:15;101453.59;;;19.59;100.00
8627;BME280;4351;51.422;6.794;2023-06-14T06:08:44;101454.31;;;19.61;100.00
8627;BME280;4351;51.422;6.794;2023-06-14T06:11:12;101456.06;;;19.62;100.00
8627;BME280;4351;51.422;6.794;2023-06-14T06:13:39;101461.53;;;19.62;100.00
8627;BME280;4351;51.422;6.794;2023-06-14T06:16:08;101455.19;;;19.62;100.00
8627;BME280;4351;51.422;6.794;2023-06-14T06:18:35;101463.00;;;19.67;100.00
8627;BME280;4351;51.422;6.794;2023-06-14T06:21:03;101465.91;;;19.75;100.00
8627;BME280;4351;51.422;6.794;2023-06-14T06:23:33;101466.78;;;20.07;100.00
8627;BME280;4351;51.422;6.794;2023-06-14T06:26:02;101459.13;;;20.01;100.00
8627;BME280;4351;51.422;6.794;2023-06-14T06:28:30;101471.66;;;20.03;100.00
8627;BME280;4351;51.422;6.794;2023-06-14T06:30:57;101466.72;;;19.97;100.00
8627;BME280;4351;51.422;6.794;2023-06-14T06:33:29;101470.41;;;20.07;100.00
8627;BME280;4351;51.422;6.794;2023-06-14T06:35:57;101464.09;;;20.17;100.00
8627;BME280;4351;51.422;6.794;2023-06-14T06:38:25;101469.94;;;20.43;100.00
8627;BME280;4351;51.422;6.794;2023-06-14T06:40:54;101476.00;;;20.47;100.00
8627;BME280;4351;51.422;6.794;2023-06-14T06:43:23;101469.09;;;20.63;100.00
8627;BME280;4351;51.422;6.794;2023-06-14T06:45:51;101478.31;;;20.42;100.00
8627;BME280;4351;51.422;6.794;2023-06-14T06:48:18;101475.16;;;20.56;100.00
8627;BME280;4351;51.422;6.794;2023-06-14T06:50:46;101476.19;;;20.85;100.00
8627;BME280;4351;51.422;6.794;2023-06-14T06:53:14;101473.16;;;20.78;100.00
8627;BME280;4351;51.422;6.794;2023-06-14T06:55:53;101483.78;;;20.52;100.00
8627;BME280;4351;51.422;6.794;2023-06-14T06:58:22;101484.16;;;20.88;100.00
8627;BME280;4351;51.422;6.794;2023-06-14T07:00:50;101481.84;;;20.84;100.00
8627;BME280;4351;51.422;6.794;2023-06-14T07:03:18;101495.78;;;20.51;100.00
8627;BME280;4351;51.422;6.794;2023-06-14T07:05:46;101484.56;;;20.84;100.00
8627;BME280;4351;51.422;6.794;2023-06-14T07:08:14;101489.00;;;20.65;100.00
8627;BME280;4351;51.422;6.794;2023-06-14T07:10:42;101490.16;;;20.52;100.00
8627;BME280;4351;51.422;6.794;2023-06-14T07:13:12;101486.41;;;20.53;100.00
8627;BME280;4351;51.422;6.794;2023-06-14T07:15:40;101497.94;;;20.67;100.00
8627;BME280;4351;51.422;6.794;2023-06-14T07:18:08;101491.63;;;20.76;100.00
8627;BME280;4351;51.422;6.794;2023-06-14T07:20:36;101489.75;;;20.87;100.00
8627;BME280;4351;51.422;6.794;2023-06-14T07:23:05;101496.38;;;20.74;100.00
8627;BME280;4351;51.422;6.794;2023-06-14T07:25:33;101494.09;;;20.89;100.00
8627;BME280;4351;51.422;6.794;2023-06-14T07:28:00;101493.94;;;20.91;100.00
8627;BME280;4351;51.422;6.794;2023-06-14T07:30:30;101491.06;;;20.93;100.00
8627;BME280;4351;51.422;6.794;2023-06-14T07:32:58;101482.00;;;21.02;100.00
8627;BME280;4351;51.422;6.794;2023-06-14T07:35:26;101477.78;;;21.18;100.00
8627;BME280;4351;51.422;6.794;2023-06-14T07:37:54;101482.13;;;21.30;100.00
8627;BME280;4351;51.422;6.794;2023-06-14T07:40:22;101491.66;;;21.16;100.00
8627;BME280;4351;51.422;6.794;2023-06-14T07:42:50;101490.50;;;21.29;100.00
8627;BME280;4351;51.422;6.794;2023-06-14T07:45:18;101494.97;;;21.20;100.00
8627;BME280;4351;51.422;6.794;2023-06-14T07:47:47;101472.56;;;21.54;100.00
8627;BME280;4351;51.422;6.794;2023-06-14T07:50:16;101474.34;;;21.25;100.00
8627;BME280;4351;51.422;6.794;2023-06-14T07:52:45;101483.28;;;21.28;100.00
8627;BME280;4351;51.422;6.794;2023-06-14T07:55:13;101486.59;;;21.31;100.00
8627;BME280;4351;51.422;6.794;2023-06-14T07:57:42;101475.19;;;21.36;100.00
8627;BME280;4351;51.422;6.794;2023-06-14T08:00:11;101485.72;;;21.41;100.00
8627;BME280;4351;51.422;6.794;2023-06-14T08:02:41;101485.13;;;21.37;100.00
8627;BME280;4351;51.422;6.794;2023-06-14T08:05:11;101484.38;;;21.55;100.00
8627;BME280;4351;51.422;6.794;2023-06-14T08:07:40;101485.09;;;21.67;100.00
8627;BME280;4351;51.422;6.794;2023-06-14T08:10:09;101497.34;;;21.73;100.00
8627;BME280;4351;51.422;6.794;2023-06-14T08:12:37;101485.69;;;21.61;100.00
8627;BME280;4351;51.422;6.794;2023-06-14T08:15:06;101494.47;;;21.64;100.00
8627;BME280;4351;51.422;6.794;2023-06-14T08:17:42;101497.44;;;21.81;100.00
8627;BME280;4351;51.422;6.794;2023-06-14T08:20:12;101498.28;;;21.43;100.00
8627;BME280;4351;51.422;6.794;2023-06-14T08:22:43;101494.16;;;21.77;100.00
8627;BME280;4351;51.422;6.794;2023-06-14T08:25:13;101491.78;;;22.02;100.00
8627;BME280;4351;51.422;6.794;2023-06-14T08:27:42;101491.97;;;21.81;100.00
8627;BME280;4351;51.422;6.794;2023-06-14T08:30:10;101510.63;;;21.87;100.00
8627;BME280;4351;51.422;6.794;2023-06-14T08:32:39;101497.44;;;21.81;100.00
8627;BME280;4351;51.422;6.794;2023-06-14T08:35:07;101497.75;;;21.78;100.00
8627;BME280;4351;51.422;6.794;2023-06-14T08:37:39;101505.88;;;21.69;100.00
8627;BME280;4351;51.422;6.794;2023-06-14T08:40:18;101498.66;;;21.68;100.00
8627;BME280;4351;51.422;6.794;2023-06-14T08:42:50;101501.09;;;21.71;100.00
8627;BME280;4351;51.422;6.794;2023-06-14T08:45:18;101503.84;;;21.71;100.00
8627;BME280;4351;51.422;6.794;2023-06-14T08:47:49;101500.91;;;21.83;100.00
8627;BME280;4351;51.422;6.794;2023-06-14T08:50:20;101485.75;;;21.89;100.00
8627;BME280;4351;51.422;6.794;2023-06-14T08:52:57;101497.41;;;22.01;100.00
8627;BME280;4351;51.422;6.794;2023-06-14T08:55:27;101499.34;;;21.90;100.00
8627;BME280;4351;51.422;6.794;2023-06-14T08:57:57;101494.41;;;21.94;100.00
8627;BME280;4351;51.422;6.794;2023-06-14T09:00:27;101508.03;;;21.86;100.00
8627;BME280;4351;51.422;6.794;2023-06-14T09:02:55;101493.47;;;21.65;100.00
8627;BME280;4351;51.422;6.794;2023-06-14T09:05:25;101492.41;;;21.86;100.00
8627;BME280;4351;51.422;6.794;2023-06-14T09:07:55;101496.41;;;22.02;100.00
8627;BME280;4351;51.422;6.794;2023-06-14T09:10:31;101494.97;;;21.98;100.00
8627;BME280;4351;51.422;6.794;2023-06-14T09:13:01;101505.28;;;21.86;100.00
8627;BME280;4351;51.422;6.794;2023-06-14T09:15:30;101503.06;;;21.41;100.00
8627;BME280;4351;51.422;6.794;2023-06-14T09:17:58;101515.28;;;21.57;100.00
8627;BME280;4351;51.422;6.794;2023-06-14T09:20:29;101519.78;;;21.48;100.00
8627;BME280;4351;51.422;6.794;2023-06-14T09:23:00;101524.09;;;21.61;100.00
8627;BME280;4351;51.422;6.794;2023-06-14T09:25:28;101522.91;;;21.63;100.00
8627;BME280;4351;51.422;6.794;2023-06-14T09:28:06;101513.88;;;22.01;100.00
8627;BME280;4351;51.422;6.794;2023-06-14T09:30:35;101496.56;;;22.00;100.00
8627;BME280;4351;51.422;6.794;2023-06-14T09:33:03;101505.09;;;21.97;100.00
8627;BME280;4351;51.422;6.794;2023-06-14T09:35:31;101505.66;;;22.01;100.00
8627;BME280;4351;51.422;6.794;2023-06-14T09:38:01;101512.50;;;21.77;100.00
8627;BME280;4351;51.422;6.794;2023-06-14T09:40:33;101493.28;;;21.77;100.00
8627;BME280;4351;51.422;6.794;2023-06-14T09:43:04;101491.78;;;22.02;100.00
8627;BME280;4351;51.422;6.794;2023-06-14T09:45:35;101493.28;;;21.77;100.00
8627;BME280;4351;51.422;6.794;2023-06-14T09:48:03;101508.44;;;21.81;100.00
8627;BME280;4351;51.422;6.794;2023-06-14T09:50:34;101515.50;;;21.83;100.00
8627;BME280;4351;51.422;6.794;2023-06-14T09:53:06;101504.13;;;21.88;100.00
8627;BME280;4351;51.422;6.794;2023-06-14T09:55:36;101498.75;;;21.77;100.00
8627;BME280;4351;51.422;6.794;2023-06-14T09:58:05;101492.03;;;22.09;100.00
8627;BME280;4351;51.422;6.794;2023-06-14T10:00:35;101490.72;;;22.13;100.00
8627;BME280;4351;51.422;6.794;2023-06-14T10:03:08;101511.47;;;21.98;100.00
8627;BME280;4351;51.422;6.794;2023-06-14T10:05:41;101508.81;;;22.06;100.00
8627;BME280;4351;51.422;6.794;2023-06-14T10:08:14;101499.81;;;22.14;100.00
8627;BME280;4351;51.422;6.794;2023-06-14T10:10:43;101506.34;;;22.03;100.00
8627;BME280;4351;51.422;6.794;2023-06-14T10:13:12;101490.31;;;22.08;100.00
8627;BME280;4351;51.422;6.794;2023-06-14T10:15:50;101514.91;;;22.00;100.00
8627;BME280;4351;51.422;6.794;2023-06-14T10:18:24;101504.81;;;22.00;100.00
8627;BME280;4351;51.422;6.794;2023-06-14T10:21:01;101505.69;;;21.91;100.00
8627;BME280;4351;51.422;6.794;2023-06-14T10:23:35;101502.91;;;22.01;100.00
8627;BME280;4351;51.422;6.794;2023-06-14T10:26:05;101485.00;;;22.25;100.00
8627;BME280;4351;51.422;6.794;2023-06-14T10:28:37;101487.63;;;22.26;100.00
8627;BME280;4351;51.422;6.794;2023-06-14T10:31:06;101483.56;;;22.49;100.00
8627;BME280;4351;51.422;6.794;2023-06-14T10:33:35;101493.50;;;22.32;100.00
8627;BME280;4351;51.422;6.794;2023-06-14T10:36:27;101507.06;;;22.05;100.00
8627;BME280;4351;51.422;6.794;2023-06-14T10:39:00;101487.38;;;22.20;100.00
8627;BME280;4351;51.422;6.794;2023-06-14T10:41:29;101492.13;;;22.46;100.00
8627;BME280;4351;51.422;6.794;2023-06-14T10:44:31;101481.31;;;22.44;100.00
8627;BME280;4351;51.422;6.794;2023-06-14T10:47:00;101483.28;;;22.24;100.00
8627;BME280;4351;51.422;6.794;2023-06-14T10:49:38;101482.41;;;22.23;100.00
8627;BME280;4351;51.422;6.794;2023-06-14T10:52:10;101491.00;;;22.38;100.00
8627;BME280;4351;51.422;6.794;2023-06-14T10:55:08;101486.91;;;22.24;100.00
8627;BME280;4351;51.422;6.794;2023-06-14T10:57:52;101480.94;;;22.29;100.00
8627;BME280;4351;51.422;6.794;2023-06-14T11:00:24;101496.31;;;22.22;100.00
8627;BME280;4351;51.422;6.794;2023-06-14T11:03:31;101487.63;;;22.26;100.00
8627;BME280;4351;51.422;6.794;2023-06-14T11:06:13;101492.19;;;22.36;100.00
8627;BME280;4351;51.422;6.794;2023-06-14T11:09:09;101488.69;;;22.44;100.00
8627;BME280;4351;51.422;6.794;2023-06-14T11:11:43;101496.50;;;22.38;100.00
8627;BME280;4351;51.422;6.794;2023-06-14T11:14:11;101494.47;;;22.40;100.00
8627;BME280;4351;51.422;6.794;2023-06-14T11:16:40;101493.38;;;22.33;100.00
8627;BME280;4351;51.422;6.794;2023-06-14T11:19:08;101484.69;;;22.56;100.00
8627;BME280;4351;51.422;6.794;2023-06-14T11:21:40;101481.59;;;22.88;100.00
8627;BME280;4351;51.422;6.794;2023-06-14T11:24:10;101495.44;;;22.49;100.00
8627;BME280;4351;51.422;6.794;2023-06-14T11:26:38;101507.22;;;22.42;100.00
8627;BME280;4351;51.422;6.794;2023-06-14T11:29:07;101497.50;;;22.66;100.00
8627;BME280;4351;51.422;6.794;2023-06-14T11:31:36;101508.00;;;22.80;100.00
8627;BME280;4351;51.422;6.794;2023-06-14T11:34:04;101488.28;;;22.85;100.00
8627;BME280;4351;51.422;6.794;2023-06-14T11:36:34;101481.03;;;23.02;100.00
8627;BME280;4351;51.422;6.794;2023-06-14T11:39:03;101500.22;;;22.94;100.00
8627;BME280;4351;51.422;6.794;2023-06-14T11:41:35;101485.75;;;22.92;100.00
8627;BME280;4351;51.422;6.794;2023-06-14T11:44:04;101493.94;;;22.83;100.00
8627;BME280;4351;51.422;6.794;2023-06-14T11:46:35;101489.59;;;22.81;100.00
8627;BME280;4351;51.422;6.794;2023-06-14T11:49:03;101484.66;;;22.84;100.00
8627;BME280;4351;51.422;6.794;2023-06-14T11:51:34;101494.44;;;23.24;100.00
8627;BME280;4351;51.422;6.794;2023-06-14T11:54:03;101491.09;;;22.93;100.00
8627;BME280;4351;51.422;6.794;2023-06-14T11:56:31;101506.34;;;22.88;100.00
8627;BME280;4351;51.422;6.794;2023-06-14T11:58:59;101484.59;;;23.39;100.00
8627;BME280;4351;51.422;6.794;2023-06-14T12:01:29;101484.31;;;23.24;100.00
8627;BME280;4351;51.422;6.794;2023-06-14T12:04:00;101480.97;;;23.12;100.00
8627;BME280;4351;51.422;6.794;2023-06-14T12:06:30;101480.47;;;23.17;100.00
8627;BME280;4351;51.422;6.794;2023-06-14T12:09:06;101499.66;;;23.27;100.00
8627;BME280;4351;51.422;6.794;2023-06-14T12:11:43;101490.31;;;23.01;100.00
8627;BME280;4351;51.422;6.794;2023-06-14T12:14:11;101483.72;;;23.39;100.00
8627;BME280;4351;51.422;6.794;2023-06-14T12:16:40;101489.75;;;23.16;100.00
8627;BME280;4351;51.422;6.794;2023-06-14T12:19:12;101491.72;;;23.05;100.00
8627;BME280;4351;51.422;6.794;2023-06-14T12:21:41;101493.59;;;23.23;100.00
8627;BME280;4351;51.422;6.794;2023-06-14T12:24:11;101484.13;;;23.44;100.00
8627;BME280;4351;51.422;6.794;2023-06-14T12:26:41;101478.28;;;23.20;100.00
8627;BME280;4351;51.422;6.794;2023-06-14T12:29:09;101480.38;;;23.27;100.00
8627;BME280;4351;51.422;6.794;2023-06-14T12:31:39;101478.72;;;23.34;100.00
8627;BME280;4351;51.422;6.794;2023-06-14T12:34:07;101473.03;;;23.54;100.00
8627;BME280;4351;51.422;6.794;2023-06-14T12:36:36;101471.19;;;23.63;100.00
8627;BME280;4351;51.422;6.794;2023-06-14T12:39:11;101479.72;;;23.51;100.00
8627;BME280;4351;51.422;6.794;2023-06-14T12:41:39;101469.16;;;23.65;100.00
8627;BME280;4351;51.422;6.794;2023-06-14T12:44:09;101485.41;;;23.85;100.00
8627;BME280;4351;51.422;6.794;2023-06-14T12:46:37;101481.00;;;23.65;100.00
8627;BME280;4351;51.422;6.794;2023-06-14T12:49:08;101477.81;;;23.79;100.00
8627;BME280;4351;51.422;6.794;2023-06-14T12:51:39;101472.66;;;23.75;100.00
8627;BME280;4351;51.422;6.794;2023-06-14T12:54:07;101476.91;;;23.70;100.00
8627;BME280;4351;51.422;6.794;2023-06-14T12:56:35;101471.75;;;24.02;100.00
8627;BME280;4351;51.422;6.794;2023-06-14T12:59:03;101479.66;;;23.70;100.00
8627;BME280;4351;51.422;6.794;2023-06-14T13:01:32;101471.28;;;23.80;100.00
8627;BME280;4351;51.422;6.794;2023-06-14T13:04:00;101474.03;;;23.80;100.00
8627;BME280;4351;51.422;6.794;2023-06-14T13:06:28;101469.25;;;23.82;100.00
8627;BME280;4351;51.422;6.794;2023-06-14T13:09:00;101469.94;;;23.84;100.00
8627;BME280;4351;51.422;6.794;2023-06-14T13:11:28;101466.88;;;23.87;100.00
8627;BME280;4351;51.422;6.794;2023-06-14T13:13:56;101451.81;;;24.16;100.00
8627;BME280;4351;51.422;6.794;2023-06-14T13:16:32;101467.66;;;24.14;100.00